LICR Airport Information

Runway Information
Runway 11 Length 5574 ft width 148 ft Elevation 38 ft Threshold N/A Heading 113
Runway 29 Length 5574 ft Width 148 ft Elevation 43 ft Threshold N/A Heading 293
Runway 15 Length 6549 ft width 148 ft Elevation 84 ft Threshold 840 ft Heading 153
Runway 33 Length 6549 ft Width 148 ft Elevation 34 ft Threshold 164 ft Heading 333
Airport Frequencies
Type APP Name APP Frequency 120.275 MHZ
Type TWR Name TWR Frequency 118.25 MHZ
Airport Navaids
Type VOR-DME Name Reggio Calabria Frequency 111000 KHZ
Type NDB Name Reggio Calabria Frequency 325 KHZ
Airport Weather Information & NOTAM
ADDS - METARS form results

(0334 UTC 12 August 2022)
Data provider http://aviationweather.gov/metar/data/
 
METAR text: LICR 120320Z AUTO 05002KT 9999 SCT130/// 24/15 Q1011
Conditions at: LICR (REGGIO CALABRIA , IT) observed 0320 UTC 12 August 2022
Temperature: 24.0°C (75°F)
Dewpoint: 15.0°C (59°F) [RH = 57%]
Pressure (altimeter): 29.85 inches Hg (1011.0 mb)
Winds: from the NE (50 degrees) at 2 MPH (2 knots; 1.0 m/s)
Visibility: 6 or more miles (10+ km)
Ceiling: at least 12,000 feet AGL
Clouds: scattered clouds at 13000 feet AGL
Weather: no significant weather observed at this time

METAR text: LICR 120250Z AUTO VRB02KT 9999 FEW130/// 25/16 Q1011
Conditions at: LICR (REGGIO CALABRIA , IT) observed 0250 UTC 12 August 2022
Temperature: 25.0°C (77°F)
Dewpoint: 16.0°C (61°F) [RH = 57%]
Pressure (altimeter): 29.85 inches Hg (1011.0 mb)
Winds: variable direction winds at 2 MPH (2 knots; 1.0 m/s)
Visibility: 6 or more miles (10+ km)
Ceiling: at least 12,000 feet AGL
Clouds: few clouds at 13000 feet AGL
Weather: no significant weather observed at this time

Forecast for: LICR (REGGIO CALABRIA , IT)
Text: TAF LICR 112300Z 1200/1224 30007KT 9999 SCT030
Forecast period: 0000 UTC 12 August 2022 to 0000 UTC 13 August 2022
Forecast type: FROM: standard forecast or significant change
Winds: from the WNW (300 degrees) at 8 MPH (7 knots; 3.6 m/s)
Visibility: 6 or more miles (10+ km)
Ceiling: at least 12,000 feet AGL
Clouds: scattered clouds at 3000 feet AGL
Weather: no significant weather forecast for this period
Text: TEMPO 1210/1216 4000 TSRA
Forecast period: 1000 to 1600 UTC 12 August 2022
Forecast type: TEMPORARY: The following changes expected for less than half the time period
Visibility: 2.49 miles (4.01 km)
Ceiling: unknown
Clouds: missing
Weather: TSRA  (rain associated with thunderstorm(s))